Terminal Aerodrome Forecast
Issued by NWS

Home | Current Version | Previous Version | Text Only | Print | Product List | Glossary Off
Versions: 1 2 3 4 5 6 7 8 9 10 11 12 13 14 15 16 17 18 19 20 21 22

489
FTUS43 KBIS 170258 AAA
TAFMOT
TAF AMD
KMOT 170258Z 1703/1724 19011KT P6SM BKN080 OVC100
      TEMPO 1703/1705 -FZRASN BKN045
     FM170600 24010KT P6SM SCT120 SCT200
     FM170800 28010KT P6SM SCT250=

USA.gov is the U.S. government's official web portal to all federal, state and local government web resources and services.